Flight Track Log - Related Links

Times and Time Zones

All times are in EDT time to prevent confusion due to time zone crossing. See the AFL150 flight status page for this flight to view local times or setup timezone preferences in your user account.

Time Position Orientation Groundspeed Altitude Reporting Facility
EDT Latitude Longitude Course Direction KTS MPH feet Rate Location/Type
Sun 06:41:15 AM 56.0256 37.7353 45° Northeast 269 310 5,800  Level FlightAware ADS-B (UUWV / MOW)
Sun 06:41:31 AM 56.0432 37.7509 18° North 265 305 6,500 2,516 Climbing FlightAware ADS-B (UUWV / MOW)
Sun 06:41:46 AM 56.0612 37.7506 North 264 304 7,100 2,000 Climbing FlightAware ADS-B (UUWV / MOW)
Sun 06:42:01 AM 56.0770 37.7362 329° Northwest 271 312 7,500 1,846 Climbing FlightAware ADS-B (UUWV / MOW)
Sun 06:42:12 AM 56.0857 37.7149 289° West 283 326 7,900 3,000 Climbing FlightAware ADS-B (UUWV / MOW)
Sun 06:42:21 AM 56.0890 37.6927 278° West 286 329 8,500 2,250 Climbing FlightAware ADS-B (UUWV / MOW)
Sun 06:42:44 AM 56.0902 37.6531 274° West 291 335 9,100 1,881 Climbing FlightAware ADS-B (UUWV / MOW)
Sun 06:43:28 AM 56.0960 37.5316 275° West 296 341 10,600 1,714 Climbing FlightAware ADS-B (UUWV / MOW)
Sun 06:44:15 AM 56.1016 37.4051 274° West 341 392 11,700 1,481 Climbing FlightAware ADS-B (UUWV / MOW)
Sun 06:44:45 AM 56.1047 37.3351 274° West 359 413 12,500 1,574 Climbing FlightAware ADS-B (UUWV / MOW)
Sun 06:45:16 AM 56.1091 37.2258 274° West 373 429 13,300 1,672 Climbing FlightAware ADS-B (UUWV / MOW)
Sun 06:45:46 AM 56.1122 37.1325 273° West 386 444 14,200 2,108 Climbing FlightAware ADS-B (UUWV / MOW)
Sun 06:46:30 AM 56.1168 36.9926 273° West 391 450 15,900 1,976 Climbing FlightAware ADS-B (UUWV / MOW)
Sun 06:48:30 AM 56.1296 36.5912 273° West 414 476 19,600 1,866 Climbing FlightAware ADS-B (UUWV / MOW)
Sun 06:49:14 AM 56.1337 36.4471 273° West 419 482 21,000 1,703 Climbing FlightAware ADS-B (UUWV / MOW)
Sun 06:49:44 AM 56.1369 36.3364 273° West 425 489 21,700 696 Climbing FlightAware ADS-B (UUWV / MOW)
Sun 07:07:54 AM 56.4649 32.1849 279° West 470 541 34,000 635 Climbing FlightAware ADS-B
Sun 07:09:06 AM 56.4876 31.9125 278° West 470 541 34,000  Level FlightAware ADS-B
Sun 07:10:05 AM 56.5063 31.6821 278° West 466 536 34,000  Level FlightAware ADS-B
Sun 07:11:06 AM 56.5249 31.4455 278° West 463 533 34,000  Level FlightAware ADS-B
Sun 07:11:42 AM 56.5374 31.3089 287° West 469 540 34,000  Level FlightAware ADS-B
Sun 07:12:21 AM 56.5607 31.1634 289° West 470 541 34,000  Level FlightAware ADS-B
Sun 07:13:10 AM 56.6024 30.9956 299° West 470 541 34,000  Level FlightAware ADS-B
Sun 07:14:10 AM 56.6802 30.7933 310° West 470 541 34,000  Level FlightAware ADS-B
Sun 07:15:10 AM 56.7563 30.6064 298° West 467 537 34,000  Level FlightAware ADS-B
Sun 07:16:04 AM 56.7876 30.4121 280° West 465 535 34,000  Level FlightAware ADS-B
Sun 07:17:10 AM 56.8124 30.1505 282° West 464 534 34,000  Level FlightAware ADS-B
Sun 07:18:10 AM 56.8679 29.9389 308° West 466 536 34,000  Level FlightAware ADS-B
Sun 07:18:41 AM 56.9086 29.8469 309° West 466 536 34,000  Level FlightAware ADS-B
Sun 07:19:14 AM 56.9510 29.7500 307° West 467 537 34,000  Level FlightAware ADS-B
Sun 07:19:53 AM 57.0027 29.6221 307° West 469 540 34,000  Level FlightAware ADS-B
Sun 07:20:52 AM 57.0807 29.4337 307° West 477 549 34,000  Level FlightAware ADS-B
Sun 07:21:51 AM 57.1606 29.2409 307° West 479 551 34,000  Level FlightAware ADS-B
Sun 07:22:51 AM 57.2405 29.0461 307° West 479 551 34,000  Level FlightAware ADS-B
Sun 07:23:21 AM 57.2803 28.9485 307° West 476 548 34,000  Level FlightAware ADS-B
Sun 07:24:09 AM 57.3426 28.7952 307° West 474 545 34,000  Level FlightAware ADS-B
Sun 07:25:09 AM 57.4212 28.6004 307° West 472 543 34,000  Level FlightAware ADS-B
Sun 07:26:10 AM 57.4999 28.4036 307° West 473 544 34,000  Level FlightAware ADS-B
Sun 07:27:07 AM 57.5713 28.2237 306° West 473 544 34,000  Level FlightAware ADS-B
Sun 07:28:26 AM 57.6735 27.9637 306° West 472 543 34,000  Level FlightAware ADS-B
Sun 07:29:25 AM 57.7518 27.7628 306° West 473 544 34,000  Level FlightAware ADS-B
Sun 07:30:34 AM 57.8386 27.5333 299° West 471 542 34,000  Level FlightAware ADS-B
Sun 07:31:25 AM 57.8775 27.3372 289° West 475 547 34,000  Level FlightAware ADS-B
Sun 07:32:24 AM 57.9222 27.1072 291° West 483 556 34,000  Level FlightAware ADS-B
Sun 07:33:12 AM 57.9570 26.9333 291° West 484 557 34,000  Level FlightAware ADS-B
Sun 07:34:33 AM 58.0205 26.6123 290° West 495 570 34,000  Level FlightAware ADS-B
Sun 07:35:32 AM 58.0703 26.3568 290° West 498 573 34,000  Level FlightAware ADS-B
Sun 07:36:02 AM 58.0942 26.2330 290° West 490 564 34,000  Level FlightAware ADS-B
Sun 07:36:33 AM 58.1174 26.1118 290° West 488 562 34,000  Level FlightAware ADS-B
Sun 07:37:15 AM 58.1490 25.9463 290° West 491 565 34,000  Level FlightAware ADS-B
Sun 07:37:45 AM 58.1676 25.8481 290° West 492 566 34,000  Level FlightAware ADS-B
Sun 07:38:28 AM 58.2046 25.6505 290° West 489 563 34,000  Level FlightAware ADS-B
Sun 07:38:58 AM 58.2217 25.5586 289° West 485 558 34,000  Level FlightAware ADS-B
Sun 07:39:34 AM 58.2531 25.3890 289° West 485 558 34,000  Level FlightAware ADS-B
Sun 07:40:07 AM 58.2744 25.2727 289° West 486 559 34,000  Level FlightAware ADS-B
Sun 07:40:53 AM 58.3103 25.0752 289° West 487 560 34,000  Level FlightAware ADS-B
Sun 07:41:25 AM 58.3346 24.9399 289° West 488 562 34,000  Level FlightAware ADS-B
Sun 07:41:58 AM 58.3592 24.8022 289° West 489 563 34,000  Level FlightAware ADS-B
Sun 07:42:41 AM 58.3890 24.6349 289° West 487 560 34,000  Level FlightAware ADS-B
Sun 07:43:03 AM 58.3917 24.6195 289° West 486 559 34,000  Level FlightAware ADS-B
Sun 07:45:14 AM 58.4870 24.0146 286° West 483 556 34,000  Level FlightAware ADS-B
Sun 07:48:19 AM 58.5736 23.4266 285° West 484 557 34,000  Level FlightAware ADS-B
Sun 07:50:01 AM 58.6576 22.8334 285° West 480 552 34,000  Level FlightAware ADS-B
Sun 07:50:40 AM 58.6798 22.6728 285° West 481 554 34,000  Level FlightAware ADS-B
Sun 07:51:21 AM 58.7032 22.5025 285° West 481 554 34,000  Level FlightAware ADS-B
Sun 07:52:16 AM 58.7339 22.2754 285° West 479 551 34,000  Level FlightAware ADS-B
Sun 07:52:47 AM 58.7505 22.1506 284° West 480 552 34,000  Level FlightAware ADS-B
Sun 07:53:18 AM 58.7678 22.0206 284° West 483 556 34,000  Level FlightAware ADS-B
Sun 07:53:53 AM 58.7870 21.8741 284° West 484 557 34,000  Level FlightAware ADS-B
Sun 07:54:50 AM 58.7789 21.9356 284° West 483 556 34,000  Level FlightAware ADS-B
Sun 07:55:39 AM 58.8198 21.6217 284° West 483 556 34,000  Level FlightAware ADS-B
Sun 07:56:09 AM 58.8475 21.4039 289° West 484 557 34,000  Level FlightAware ADS-B
Sun 07:56:39 AM 58.8839 21.1945 289° West 486 559 34,000  Level FlightAware ADS-B
Sun 07:57:30 AM 58.9203 20.9810 288° West 487 560 34,000  Level FlightAware ADS-B
Sun 07:58:20 AM 58.9554 20.7680 288° West 489 563 34,000  Level FlightAware ADS-B
Sun 07:59:11 AM 58.9898 20.5566 287° West 486 559 34,000  Level FlightAware ADS-B
Sun 07:59:49 AM 59.0069 20.4505 287° West 487 560 34,000  Level FlightAware ADS-B
Sun 08:00:31 AM 59.0429 20.2248 287° West 488 562 34,000  Level FlightAware ADS-B
Sun 08:01:10 AM 59.0657 20.0801 287° West 490 564 34,000  Level FlightAware ADS-B
Sun 08:01:51 AM 59.0949 19.8930 287° West 493 567 34,000  Level FlightAware ADS-B
Sun 08:02:31 AM 59.1221 19.7171 287° West 493 567 34,000  Level FlightAware ADS-B
Sun 08:03:10 AM 59.1466 19.5568 287° West 496 571 34,000  Level FlightAware ADS-B
Sun 08:03:51 AM 59.1731 19.3817 286° West 494 568 34,000  Level FlightAware ADS-B
Sun 08:04:30 AM 59.1979 19.2166 286° West 492 566 34,000  Level FlightAware ADS-B
Sun 08:05:11 AM 59.2237 19.0430 286° West 492 566 34,000  Level FlightAware ADS-B
Sun 08:05:51 AM 59.2489 18.8719 286° West 487 560 34,000  Level FlightAware ADS-B
Sun 08:06:31 AM 59.2731 18.7046 286° West 476 548 34,000  Level FlightAware ADS-B
Sun 08:07:12 AM 59.2965 18.5427 286° West 477 549 34,000  Level FlightAware ADS-B
Sun 08:07:51 AM 59.3204 18.3743 286° West 474 545 34,000  Level FlightAware ADS-B
Sun 08:08:32 AM 59.3436 18.2101 285° West 469 540 34,000  Level FlightAware ADS-B
Sun 08:09:10 AM 59.3662 18.0485 285° West 466 536 34,000  Level FlightAware ADS-B
Sun 08:09:52 AM 59.3888 17.8846 285° West 463 533 34,000  Level FlightAware ADS-B
Sun 08:10:32 AM 59.4118 17.7168 285° West 466 536 34,000  Level FlightAware ADS-B
Sun 08:11:11 AM 59.4330 17.5597 285° West 462 532 34,000  Level FlightAware ADS-B
Sun 08:11:52 AM 59.4540 17.4030 285° West 463 533 34,000  Level FlightAware ADS-B
Sun 08:12:31 AM 59.4762 17.2357 285° West 462 532 34,000  Level FlightAware ADS-B
Sun 08:13:13 AM 59.4971 17.0764 285° West 464 534 34,000  Level FlightAware ADS-B
Sun 08:13:53 AM 59.5185 16.9115 284° West 465 535 34,000  Level FlightAware ADS-B
Sun 08:14:32 AM 59.5400 16.7437 284° West 463 533 34,000  Level FlightAware ADS-B
Sun 08:15:13 AM 59.5611 16.5775 284° West 464 534 34,000  Level FlightAware ADS-B
Sun 08:15:53 AM 59.5817 16.4131 284° West 460 529 34,000  Level FlightAware ADS-B
Sun 08:16:33 AM 59.6012 16.2552 284° West 462 532 34,000  Level FlightAware ADS-B
Sun 08:17:11 AM 59.6114 16.1721 284° West 466 536 34,000  Level FlightAware ADS-B
Sun 08:17:53 AM 59.6416 15.9239 283° West 463 533 34,000  Level FlightAware ADS-B
Sun 08:18:33 AM 59.6609 15.7629 283° West 458 527 34,000  Level FlightAware ADS-B
Sun 08:19:08 AM 59.6897 15.5197 282° West 457 526 34,000  Level FlightAware ADS-B (OEMA / MED)
Sun 08:19:38 AM 59.7038 15.3985 282° West 459 528 34,000  Level FlightAware ADS-B (OEMA / MED)
Sun 08:20:08 AM 59.7184 15.2719 282° West 463 533 34,000  Level FlightAware ADS-B (OEMA / MED)
Sun 08:20:39 AM 59.7329 15.1446 282° West 466 536 34,000  Level FlightAware ADS-B (OEMA / MED)
Sun 08:21:24 AM 59.7539 14.9598 283° West 464 534 34,000  Level FlightAware ADS-B (OEMA / MED)
Sun 08:21:54 AM 59.7681 14.8326 282° West 464 534 34,000  Level FlightAware ADS-B (OEMA / MED)
Sun 08:22:24 AM 59.7816 14.7113 282° West 461 531 34,000  Level FlightAware ADS-B (OEMA / MED)
Sun 08:22:54 AM 59.7978 14.5870 289° West 458 527 34,000  Level FlightAware ADS-B (OEMA / MED)
Sun 08:23:38 AM 59.8259 14.4103 286° West 458 527 34,000  Level FlightAware ADS-B (OEMA / MED)
Sun 08:24:09 AM 59.8448 14.2882 287° West 455 524 34,000  Level FlightAware ADS-B (OEMA / MED)
Sun 08:24:53 AM 59.8722 14.1118 287° West 449 517 34,000  Level FlightAware ADS-B (OEMA / MED)
Sun 08:25:24 AM 59.8906 13.9917 287° West 450 518 34,000  Level FlightAware ADS-B (OEMA / MED)
Sun 08:26:08 AM 59.9173 13.8168 287° West 451 519 34,000  Level FlightAware ADS-B (OEMA / MED)
Sun 08:26:39 AM 59.9355 13.6956 287° West 448 516 34,000  Level FlightAware ADS-B (OEMA / MED)
Sun 08:27:23 AM 59.9614 13.5229 287° West 450 518 34,000  Level FlightAware ADS-B (OEMA / MED)
Sun 08:27:54 AM 59.9799 13.3978 286° West 450 518 34,000  Level FlightAware ADS-B (OEMA / MED)
Sun 08:28:39 AM 60.0060 13.2204 285° West 447 514 34,000  Level FlightAware ADS-B (OEMA / MED)
Sun 08:29:09 AM 60.0236 13.0992 285° West 448 516 34,000  Level FlightAware ADS-B (OEMA / MED)
Sun 08:29:54 AM 60.0493 12.9211 285° West 451 519 34,000  Level FlightAware ADS-B (OEMA / MED)
Sun 08:30:24 AM 60.0668 12.7991 285° West 452 520 34,000  Level FlightAware ADS-B (OEMA / MED)
Sun 08:31:08 AM 60.0922 12.6195 285° West 452 520 34,000  Level FlightAware ADS-B (OEMA / MED)
Sun 08:31:39 AM 60.1090 12.5002 285° West 454 522 34,000  Level FlightAware ADS-B (OEMA / MED)
Sun 08:32:09 AM 60.1264 12.3744 285° West 446 513 34,000  Level FlightAware ADS-B (OEMA / MED)
Sun 08:32:40 AM 60.1433 12.2525 285° West 444 511 34,000  Level FlightAware ADS-B (OEMA / MED)
Sun 08:33:25 AM 60.1673 12.0770 285° West 438 504 34,000  Level FlightAware ADS-B (OEMA / MED)
Sun 08:33:55 AM 60.1834 11.9576 285° West 437 503 34,000  Level FlightAware ADS-B (OEMA / MED)
Sun 08:34:40 AM 60.2067 11.7842 285° West 439 505 34,000  Level FlightAware ADS-B (OEMA / MED)
Sun 08:35:24 AM 60.2300 11.6081 285° West 440 506 34,000  Level FlightAware ADS-B (OEMA / MED)
Sun 08:35:55 AM 60.2458 11.4878 285° West 440 506 34,000  Level FlightAware ADS-B (OEMA / MED)
Sun 08:36:25 AM 60.2612 11.3700 285° West 442 509 34,000  Level FlightAware ADS-B (OEMA / MED)
Sun 08:37:09 AM 60.2842 11.1931 285° West 444 511 34,000  Level FlightAware ADS-B (OEMA / MED)
Sun 08:37:40 AM 60.2997 11.0715 283° West 441 507 34,000  Level FlightAware ADS-B (OEMA / MED)
Sun 08:38:25 AM 60.3225 10.8916 283° West 441 507 34,000  Level FlightAware ADS-B (OEMA / MED)
Sun 08:39:08 AM 60.3439 10.7196 283° West 441 507 34,000  Level FlightAware ADS-B (OEMA / MED)
Sun 08:40:24 AM 60.3812 10.4170 283° West 438 504 34,000  Level FlightAware ADS-B (OEMA / MED)
Sun 08:40:55 AM 60.3959 10.2961 283° West 441 507 34,000 395 Level FlightAware ADS-B (OEMA / MED)
Sun 08:41:40 AM 60.4175 10.1156 283° West 438 504 34,500 720 Climbing FlightAware ADS-B (OEMA / MED)
Sun 08:42:10 AM 60.4318 9.9954 283° West 441 507 34,900 811 Climbing FlightAware ADS-B (OEMA / MED)
Sun 08:42:54 AM 60.4528 9.8170 283° West 440 506 35,500 800 Climbing FlightAware ADS-B (OEMA / MED)
Sun 08:43:25 AM 60.4669 9.6954 283° West 438 504 35,900 400 Climbing FlightAware ADS-B (OEMA / MED)
Sun 08:44:09 AM 60.4872 9.5193 283° West 440 506 36,000 80 Climbing FlightAware ADS-B (OEMA / MED)
Sun 08:44:40 AM 60.5012 9.3960 283° West 441 507 36,000  Level FlightAware ADS-B (OEMA / MED)
Sun 08:45:10 AM 60.5152 9.2726 283° West 442 509 36,000  Level FlightAware ADS-B (OEMA / MED)
Sun 08:45:40 AM 60.5281 9.1570 283° West 443 510 36,000  Level FlightAware ADS-B (OEMA / MED)
Sun 08:46:24 AM 60.5479 8.9776 283° West 442 509 36,000  Level FlightAware ADS-B (OEMA / MED)
Sun 08:46:55 AM 60.5616 8.8517 282° West 442 509 36,000  Level FlightAware ADS-B (OEMA / MED)
Sun 08:47:38 AM 60.5804 8.6780 282° West 444 511 36,000  Level FlightAware ADS-B (OEMA / MED)
Sun 08:48:08 AM 60.5937 8.5540 281° West 443 510 36,000  Level FlightAware ADS-B (OEMA / MED)
Sun 08:48:40 AM 60.6076 8.4224 281° West 445 512 36,000  Level FlightAware ADS-B (OEMA / MED)
Sun 08:49:14 AM 60.6223 8.2822 281° West 447 514 36,000  Level FlightAware ADS-B (OEMA / MED)
Sun 08:49:54 AM 60.6391 8.1196 281° West 447 514 36,000  Level FlightAware ADS-B (OEMA / MED)
Sun 08:50:55 AM 60.6648 7.8673 281° West 451 519 36,000  Level FlightAware ADS-B (OEMA / MED)
Sun 08:53:00 AM 60.7136 7.3889 282° West  Level Estimated
Sun 08:54:00 AM 60.7364 7.1587 282° West  Level Estimated
Sun 08:55:00 AM 60.7588 6.9282 281° West  Level Estimated
Sun 08:56:00 AM 60.7808 6.6974 281° West  Level Estimated
Sun 08:57:00 AM 60.8024 6.4663 281° West  Level Estimated
Sun 08:58:00 AM 60.8236 6.2349 281° West  Level Estimated
Sun 08:59:00 AM 60.8445 6.0032 281° West  Level Estimated
Sun 09:00:00 AM 60.8649 5.7712 280° West  Level Estimated
Sun 09:01:00 AM 60.8849 5.5388 280° West  Level Estimated
Sun 09:02:00 AM 60.9045 5.3062 280° West  Level Estimated
Sun 09:03:00 AM 60.9237 5.0733 280° West  Level Estimated
Sun 09:04:00 AM 60.9426 4.8402 280° West  Level Estimated
Sun 09:05:00 AM 60.9610 4.6067 279° West  Level Estimated
Sun 09:06:00 AM 60.9790 4.3730 279° West  Level Estimated
Sun 09:07:00 AM 60.9966 4.1391 279° West  Level Estimated
Sun 09:08:00 AM 61.0138 3.9048 279° West  Level Estimated
Sun 09:09:00 AM 61.0306 3.6704 279° West  Level Estimated
Sun 09:10:00 AM 61.0470 3.4356 278° West  Level Estimated
Sun 09:11:00 AM 61.0630 3.2007 278° West  Level Estimated
Sun 09:12:00 AM 61.0785 2.9655 278° West  Level Estimated
Sun 09:13:00 AM 61.0937 2.7300 278° West  Level Estimated
Sun 09:14:00 AM 61.1084 2.4944 277° West  Level Estimated
Sun 09:15:00 AM 61.1228 2.2585 277° West  Level Estimated
Sun 09:16:00 AM 61.1367 2.0224 277° West  Level Estimated
Sun 09:17:00 AM 61.1502 1.7862 277° West  Level Estimated
Sun 09:18:00 AM 61.1633 1.5497 277° West  Level Estimated
Sun 09:19:00 AM 61.1760 1.3130 276° West  Level Estimated
Sun 09:20:00 AM 61.1883 1.0761 276° West  Level Estimated
Sun 09:21:00 AM 61.2002 0.8391 276° West  Level Estimated
Sun 09:22:00 AM 61.2116 0.6019 276° West  Level Estimated
Sun 09:23:00 AM 61.2227 0.3645 276° West  Level Estimated
Sun 09:24:00 AM 61.2333 0.1269 275° West  Level Estimated
Sun 09:25:00 AM 61.2435 -0.1108 275° West  Level Estimated
Sun 09:26:00 AM 61.2533 -0.3486 275° West  Level Estimated
Sun 09:27:00 AM 61.2626 -0.5866 275° West  Level Estimated
Sun 09:28:00 AM 61.2716 -0.8248 275° West  Level Estimated
Sun 09:29:00 AM 61.2802 -1.0631 274° West  Level Estimated
Sun 09:30:00 AM 61.2883 -1.3015 274° West  Level Estimated
Sun 09:31:00 AM 61.2960 -1.5400 274° West  Level Estimated
Sun 09:32:00 AM 61.3033 -1.7786 274° West  Level Estimated
Sun 09:33:00 AM 61.3101 -2.0174 274° West  Level Estimated
Sun 09:34:00 AM 61.3166 -2.2562 273° West  Level Estimated
Sun 09:35:00 AM 61.3226 -2.4952 273° West  Level Estimated
Sun 09:36:00 AM 61.3282 -2.7342 273° West  Level Estimated
Sun 09:37:00 AM 61.3334 -2.9733 273° West  Level Estimated
Sun 09:38:00 AM 61.3382 -3.2125 272° West  Level Estimated
Sun 09:39:00 AM 61.3425 -3.4518 272° West  Level Estimated
Sun 09:40:00 AM 61.3464 -3.6911 272° West  Level Estimated
Sun 09:41:00 AM 61.3499 -3.9305 272° West  Level Estimated
Sun 09:42:00 AM 61.3530 -4.1699 272° West  Level Estimated
Sun 09:43:00 AM 61.3557 -4.4094 271° West  Level Estimated
Sun 09:44:00 AM 61.3579 -4.6489 271° West  Level Estimated
Sun 09:45:00 AM 61.3598 -4.8884 271° West  Level Estimated
Sun 09:46:00 AM 61.3612 -5.1280 271° West  Level Estimated
Sun 09:47:00 AM 61.3621 -5.3676 271° West  Level Estimated
Sun 09:48:00 AM 61.3627 -5.6072 270° West  Level Estimated
Sun 09:49:00 AM 61.3628 -5.8468 270° West  Level Estimated
Sun 09:50:00 AM 61.3625 -6.0864 270° West  Level Estimated
Sun 09:51:00 AM 61.3618 -6.3260 270° West  Level Estimated
Sun 09:52:00 AM 61.3607 -6.5655 270° West  Level Estimated
Sun 09:53:00 AM 61.3592 -6.8051 269° West  Level Estimated
Sun 09:54:00 AM 61.3572 -7.0446 269° West  Level Estimated
Sun 09:55:00 AM 61.3548 -7.2841 269° West  Level Estimated
Sun 09:56:00 AM 61.3520 -7.5236 269° West  Level Estimated
Sun 09:57:00 AM 61.3488 -7.7630 268° West  Level Estimated
Sun 09:58:00 AM 61.3451 -8.0024 268° West  Level Estimated
Sun 09:59:00 AM 61.3410 -8.2417 268° West  Level Estimated
Sun 10:00:00 AM 61.3365 -8.4809 268° West  Level Estimated
Sun 10:01:00 AM 61.3316 -8.7201 268° West  Level Estimated
Sun 10:02:00 AM 61.3263 -8.9592 267° West  Level Estimated
Sun 10:03:00 AM 61.3205 -9.1981 267° West  Level Estimated
Sun 10:04:00 AM 61.3143 -9.4371 267° West  Level Estimated
Sun 10:05:00 AM 61.3077 -9.6759 267° West  Level Estimated
Sun 10:06:00 AM 61.3007 -9.9146 267° West  Level Estimated
Sun 10:07:00 AM 61.2933 -10.1532 266° West  Level Estimated
Sun 10:08:00 AM 61.2854 -10.3917 266° West  Level Estimated
Sun 10:09:00 AM 61.2772 -10.6300 266° West  Level Estimated
Sun 10:10:00 AM 61.2685 -10.8683 266° West  Level Estimated
Sun 10:11:00 AM 61.2594 -11.1064 266° West  Level Estimated
Sun 10:12:00 AM 61.2499 -11.3443 265° West  Level Estimated
Sun 10:13:00 AM 61.2399 -11.5821 265° West  Level Estimated
Sun 10:14:00 AM 61.2296 -11.8198 265° West  Level Estimated
Sun 10:15:00 AM 61.2188 -12.0573 265° West  Level Estimated
Sun 10:16:00 AM 61.2076 -12.2946 265° West  Level Estimated
Sun 10:17:00 AM 61.1960 -12.5318 264° West  Level Estimated
Sun 10:18:00 AM 61.1840 -12.7687 264° West  Level Estimated
Sun 10:19:00 AM 61.1716 -13.0055 264° West  Level Estimated
Sun 10:20:00 AM 61.1587 -13.2421 264° West  Level Estimated
Sun 10:21:00 AM 61.1455 -13.4785 263° West  Level Estimated
Sun 10:22:00 AM 61.1318 -13.7148 263° West  Level Estimated
Sun 10:23:00 AM 61.1177 -13.9508 263° West  Level Estimated
Sun 10:24:00 AM 61.1032 -14.1866 263° West  Level Estimated
Sun 10:25:00 AM 61.0883 -14.4221 263° West  Level Estimated
Sun 10:26:00 AM 61.0730 -14.6575 262° West  Level Estimated
Sun 10:27:00 AM 61.0573 -14.8926 262° West  Level Estimated
Sun 10:28:00 AM 61.0412 -15.1275 262° West  Level Estimated
Sun 10:29:00 AM 61.0247 -15.3621 262° West  Level Estimated
Sun 10:30:00 AM 61.0077 -15.5965 262° West  Level Estimated
Sun 10:31:00 AM 60.9904 -15.8306 261° West  Level Estimated
Sun 10:32:00 AM 60.9726 -16.0645 261° West  Level Estimated
Sun 10:33:00 AM 60.9545 -16.2981 261° West  Level Estimated
Sun 10:34:00 AM 60.9359 -16.5315 261° West  Level Estimated
Sun 10:35:00 AM 60.9170 -16.7645 261° West  Level Estimated
Sun 10:36:00 AM 60.8976 -16.9973 260° West  Level Estimated
Sun 10:37:00 AM 60.8778 -17.2298 260° West  Level Estimated
Sun 10:38:00 AM 60.8577 -17.4620 260° West  Level Estimated
Sun 10:39:00 AM 60.8371 -17.6940 260° West  Level Estimated
Sun 10:40:00 AM 60.8162 -17.9256 260° West  Level Estimated
Sun 10:41:00 AM 60.7948 -18.1569 259° West  Level Estimated
Sun 10:42:00 AM 60.7730 -18.3879 259° West  Level Estimated
Sun 10:43:00 AM 60.7509 -18.6186 259° West  Level Estimated
Sun 10:44:00 AM 60.7283 -18.8489 259° West  Level Estimated
Sun 10:45:00 AM 60.7054 -19.0790 259° West  Level Estimated
Sun 10:46:00 AM 60.6820 -19.3087 258° West  Level Estimated
Sun 10:47:00 AM 60.6583 -19.5380 258° West  Level Estimated
Sun 10:48:00 AM 60.6342 -19.7671 258° West  Level Estimated
Sun 10:49:00 AM 60.6097 -19.9958 258° West  Level Estimated
Sun 10:50:00 AM 60.5848 -20.2241 258° West  Level Estimated
Sun 10:51:00 AM 60.5595 -20.4521 257° West  Level Estimated
Sun 10:52:00 AM 60.5338 -20.6797 257° West  Level Estimated
Sun 10:53:00 AM 60.5077 -20.9070 257° West  Level Estimated
Sun 10:54:00 AM 60.4813 -21.1339 257° West  Level Estimated
Sun 10:55:00 AM 60.4544 -21.3604 257° West  Level Estimated
Sun 10:56:00 AM 60.4272 -21.5865 256° West  Level Estimated
Sun 10:57:00 AM 60.3996 -21.8123 256° West  Level Estimated
Sun 10:58:00 AM 60.3716 -22.0376 256° West  Level Estimated
Sun 10:59:00 AM 60.3433 -22.2626 256° West  Level Estimated
Sun 11:00:00 AM 60.3145 -22.4872 256° West  Level Estimated
Sun 11:01:00 AM 60.2854 -22.7114 255° West  Level Estimated
Sun 11:02:00 AM 60.2559 -22.9352 255° West  Level Estimated
Sun 11:03:00 AM 60.2260 -23.1586 255° West  Level Estimated
Sun 11:04:00 AM 60.1958 -23.3816 255° West  Level Estimated
Sun 11:05:00 AM 60.1651 -23.6041 255° West  Level Estimated
Sun 11:06:00 AM 60.1342 -23.8263 254° West  Level Estimated
Sun 11:07:00 AM 60.1028 -24.0480 254° West  Level Estimated
Sun 11:08:00 AM 60.0710 -24.2693 254° West  Level Estimated
Sun 11:09:00 AM 60.0390 -24.4902 254° West  Level Estimated
Sun 11:10:00 AM 60.0065 -24.7106 254° West  Level Estimated
Sun 11:11:00 AM 59.9736 -24.9306 253° West  Level Estimated
Sun 11:12:00 AM 59.9404 -25.1502 253° West  Level Estimated
Sun 11:13:00 AM 59.9069 -25.3693 253° West  Level Estimated
Sun 11:14:00 AM 59.8729 -25.5880 253° West  Level Estimated
Sun 11:15:00 AM 59.8386 -25.8062 253° West  Level Estimated
Sun 11:16:00 AM 59.8040 -26.0240 253° West  Level Estimated
Sun 11:17:00 AM 59.7690 -26.2413 252° West  Level Estimated
Sun 11:18:00 AM 59.7336 -26.4582 252° West  Level Estimated
Sun 11:19:00 AM 59.6979 -26.6746 252° West  Level Estimated
Sun 11:20:00 AM 59.6618 -26.8906 252° West  Level Estimated
Sun 11:21:00 AM 59.6254 -27.1061 252° West  Level Estimated
Sun 11:22:00 AM 59.5886 -27.3211 251° West  Level Estimated
Sun 11:23:00 AM 59.5514 -27.5356 251° West  Level Estimated
Sun 11:24:00 AM 59.5139 -27.7497 251° West  Level Estimated
Sun 11:25:00 AM 59.4761 -27.9632 251° West  Level Estimated
Sun 11:26:00 AM 59.4379 -28.1763 251° West  Level Estimated
Sun 11:27:00 AM 59.3994 -28.3890 250° West  Level Estimated
Sun 11:28:00 AM 59.3605 -28.6011 250° West  Level Estimated
Sun 11:29:00 AM 59.3213 -28.8128 250° West  Level Estimated
Sun 11:30:00 AM 59.2817 -29.0239 250° West  Level Estimated
Sun 11:31:00 AM 59.2418 -29.2346 250° West  Level Estimated
Sun 11:32:00 AM 59.2015 -29.4448 250° West  Level Estimated
Sun 11:33:00 AM 59.1610 -29.6544 249° West  Level Estimated
Sun 11:34:00 AM 59.1200 -29.8636 249° West  Level Estimated
Sun 11:35:00 AM 59.0788 -30.0723 249° West  Level Estimated
Sun 11:36:00 AM 59.0372 -30.2805 249° West  Level Estimated
Sun 11:37:00 AM 58.9953 -30.4881 249° West  Level Estimated
Sun 11:38:00 AM 58.9530 -30.6953 248° West  Level Estimated
Sun 11:39:00 AM 58.9104 -30.9019 248° West  Level Estimated
Sun 11:40:00 AM 58.8672 -31.1097 248° West  Level Estimated
Sun 11:41:00 AM 58.8236 -31.3170 248° West  Level Estimated
Sun 11:42:00 AM 58.7797 -31.5238 248° West  Level Estimated
Sun 11:43:00 AM 58.7354 -31.7300 248° West  Level Estimated
Sun 11:44:00 AM 58.6908 -31.9357 247° West  Level Estimated
Sun 11:45:00 AM 58.6459 -32.1409 247° West  Level Estimated
Sun 11:46:00 AM 58.6007 -32.3456 247° West  Level Estimated
Sun 11:47:00 AM 58.5551 -32.5497 247° West  Level Estimated
Sun 11:48:00 AM 58.5087 -32.7557 247° West  Level Estimated
Sun 11:49:00 AM 58.4619 -32.9613 247° West  Level Estimated
Sun 11:50:00 AM 58.4148 -33.1663 246° West  Level Estimated
Sun 11:51:00 AM 58.3674 -33.3707 246° West  Level Estimated
Sun 11:52:00 AM 58.3196 -33.5746 246° West  Level Estimated
Sun 11:53:00 AM 58.2715 -33.7779 246° West  Level Estimated
Sun 11:54:00 AM 58.2231 -33.9807 246° West  Level Estimated
Sun 11:55:00 AM 58.1744 -34.1829 246° West  Level Estimated
Sun 11:56:00 AM 58.1254 -34.3846 245° Southwest  Level Estimated
Sun 11:57:00 AM 58.0760 -34.5857 245° Southwest  Level Estimated
Sun 11:58:00 AM 58.0263 -34.7863 245° Southwest  Level Estimated
Sun 11:59:00 AM 57.9763 -34.9863 245° Southwest  Level Estimated
Sun 12:00:00 PM 57.9260 -35.1857 245° Southwest  Level Estimated
Sun 12:01:00 PM 57.8754 -35.3846 244° Southwest  Level Estimated
Sun 12:02:00 PM 57.8245 -35.5829 244° Southwest  Level Estimated
Sun 12:03:00 PM 57.7733 -35.7807 244° Southwest  Level Estimated
Sun 12:04:00 PM 57.7217 -35.9778 244° Southwest  Level Estimated
Sun 12:05:00 PM 57.6699 -36.1745 244° Southwest  Level Estimated
Sun 12:06:00 PM 57.6178 -36.3705 244° Southwest  Level Estimated
Sun 12:07:00 PM 57.5653 -36.5661 243° Southwest  Level Estimated
Sun 12:07:12 PM 64.2167 -48.3833 243° Southwest 480 552 36,000  Level Gander Center
Sun 12:08:00 PM 57.5126 -36.7610 243° Southwest  Level Estimated
Sun 12:09:00 PM 57.4595 -36.9554 243° Southwest  Level Estimated
Sun 12:09:12 PM 64.1500 -48.9500 255° West 470 541 36,000  Level Gander Center
Sun 12:11:12 PM 64.0833 -49.5167 224° Southwest 470 541 36,000  Level Gander Center
Sun 12:12:00 PM 57.2986 -37.5351 243° Southwest  Level Estimated
Sun 12:12:12 PM 64.0333 -49.8000 248° West 460 529 36,000  Level Gander Center
Sun 12:13:00 PM 57.2443 -37.7272 243° Southwest  Level Estimated
Sun 12:13:12 PM 64.0000 -50.0833 255° West 460 529 36,000  Level Gander Center
Sun 12:14:51 PM 63.9333 -50.5333 252° West 470 541 36,000  Level Gander Center
Sun 12:15:51 PM 63.8833 -50.8167 248° West 470 541 36,000  Level Gander Center
Sun 12:16:51 PM 63.8333 -51.0500 244° Southwest 460 529 36,000  Level Gander Center
Sun 12:17:51 PM 63.7833 -51.3333 248° West 460 529 36,000  Level Gander Center
Sun 12:18:51 PM 63.7500 -51.6167 255° West 460 529 36,000  Level Gander Center
Sun 12:19:51 PM 63.7000 -51.8500 244° Southwest 460 529 36,000  Level Gander Center
Sun 12:21:12 PM 63.6500 -52.2500 254° West 460 529 36,000  Level Gander Center
Sun 12:22:12 PM 63.6000 -52.4833 244° Southwest 460 529 36,000  Level Gander Center
Sun 12:23:12 PM 63.5500 -52.7667 248° West 460 529 36,000  Level Gander Center
Sun 12:24:12 PM 63.4833 -53.0333 241° Southwest 460 529 36,000  Level Gander Center
Sun 12:25:12 PM 63.4500 -53.3167 255° West 460 529 36,000  Level Gander Center
Sun 12:25:51 PM 63.4333 -53.4333 252° West 460 529 36,000  Level Gander Center
Sun 12:26:51 PM 63.3833 -53.7000 247° West 450 518 36,000  Level Gander Center
Sun 12:27:51 PM 63.3167 -53.9667 241° Southwest 450 518 36,000  Level Gander Center
Sun 12:29:12 PM 63.2500 -54.3167 247° West 450 518 36,000  Level Gander Center
Sun 12:30:12 PM 63.2000 -54.6000 249° West 460 529 36,000  Level Gander Center
Sun 12:30:51 PM 63.1833 -54.7500 256° West 450 518 36,000  Level Gander Center
Sun 12:31:51 PM 63.1167 -54.9833 238° Southwest 450 518 36,000  Level Gander Center
Sun 12:32:51 PM 63.0833 -55.2500 255° West 450 518 36,000  Level Gander Center
Sun 12:34:51 PM 62.9667 -55.7333 242° Southwest 450 518 36,000  Level Gander Center
Sun 12:35:51 PM 62.9333 -55.9667 253° West 450 518 36,000  Level Gander Center
Sun 12:37:51 PM 62.8167 -56.4667 243° Southwest 450 518 36,000  Level Gander Center
Sun 12:39:51 PM 62.7000 -56.9500 242° Southwest 450 518 36,000  Level Gander Center
Sun 12:40:21 PM 62.6500 -57.0000 205° Southwest 450 518 36,000  Level Montreal Center
Sun 12:40:51 PM 62.6333 -57.1667 258° West 450 518 36,000  Level Gander Center
Sun 12:41:51 PM 62.5667 -57.4333 242° Southwest 440 506 36,000  Level Gander Center
Sun 12:42:21 PM 62.5500 -57.4667 223° Southwest 440 506 36,000  Level Montreal Center
Sun 12:43:51 PM 62.4500 -57.8833 243° Southwest 440 506 36,000  Level Gander Center
Sun 12:44:51 PM 62.3833 -58.1000 236° Southwest 450 518 36,000  Level Gander Center
Sun 12:45:51 PM 62.3333 -58.3167 244° Southwest 450 518 36,000  Level Gander Center
Sun 12:46:21 PM 62.2833 -58.3833 212° Southwest 440 506 36,000  Level Montreal Center
Sun 12:47:21 PM 62.2167 -58.6000 237° Southwest 440 506 36,000  Level Montreal Center
Sun 12:47:51 PM 62.2000 -58.8000 260° West 440 506 36,000  Level Gander Center
Sun 12:48:51 PM 62.1167 -59.0167 231° Southwest 440 506 36,000  Level Gander Center
Sun 12:50:21 PM 62.0333 -59.2500 233° Southwest 440 506 36,000  Level Montreal Center
Sun 12:51:21 PM 61.9667 -59.5000 241° Southwest 440 506 36,000  Level Montreal Center
Sun 12:52:21 PM 61.9167 -59.7167 244° Southwest 430 495 36,000  Level Montreal Center
Sun 12:53:21 PM 61.8500 -59.9333 237° Southwest 430 495 36,000  Level Montreal Center
Sun 12:53:51 PM 61.8000 -60.0833 235° Southwest 440 506 36,000  Level Gander Center
Sun 12:54:51 PM 61.7333 -60.3000 237° Southwest 440 506 36,000  Level Gander Center
Sun 12:55:21 PM 61.7167 -60.3667 242° Southwest 440 506 36,000  Level Montreal Center
Sun 12:56:21 PM 61.6500 -60.5833 237° Southwest 430 495 36,000  Level Montreal Center
Sun 12:57:21 PM 61.5833 -60.7833 235° Southwest 430 495 36,000  Level Montreal Center
Sun 12:58:21 PM 61.5167 -61.0000 237° Southwest 430 495 36,000  Level Montreal Center
Sun 12:58:51 PM 61.4833 -61.1500 245° Southwest 430 495 36,000  Level Gander Center
Sun 01:00:52 PM 61.3500 -61.5667 236° Southwest 420 483 36,000  Level Gander Center
Sun 01:01:51 PM 61.3000 -61.7667 243° Southwest 420 483 36,000  Level Gander Center
Sun 01:02:21 PM 61.2500 -61.8000 198° South 420 483 36,000  Level Montreal Center
Sun 01:02:51 PM 61.2333 -61.9667 258° West 420 483 36,000  Level Gander Center
Sun 01:03:21 PM 61.1833 -62.0000 198° South 420 483 36,000  Level Montreal Center
Sun 01:03:51 PM 61.1667 -62.1500 257° West 420 483 36,000  Level Gander Center
Sun 01:04:51 PM 61.1000 -62.3833 239° Southwest 420 483 36,000  Level Gander Center
Sun 01:05:21 PM 61.0500 -62.4167 198° South 420 483 36,000  Level Montreal Center
Sun 01:06:21 PM 60.9833 -62.6167 236° Southwest 420 483 36,000  Level Montreal Center
Sun 01:07:21 PM 60.9167 -62.7833 231° Southwest 420 483 36,000  Level Montreal Center
Sun 01:09:21 PM 60.7833 -63.1833 236° Southwest 410 472 36,000  Level Montreal Center
Sun 01:10:21 PM 60.7167 -63.3833 236° Southwest 410 472 36,000  Level Montreal Center
Sun 01:10:51 PM 60.7000 -63.5167 256° West 420 483 36,000  Level Gander Center
Sun 01:12:51 PM 60.5667 -63.9167 236° Southwest 410 472 36,000  Level Gander Center
Sun 01:13:21 PM 60.5167 -63.9500 198° South 410 472 36,000  Level Montreal Center
Sun 01:14:21 PM 60.4667 -64.1333 241° Southwest 410 472 36,000  Level Montreal Center
Sun 01:15:21 PM 60.4000 -64.3000 231° Southwest 410 472 36,000  Level Montreal Center
Sun 01:16:21 PM 60.3333 -64.5000 236° Southwest 410 472 36,000  Level Montreal Center
Sun 01:17:21 PM 60.2500 -64.6833 228° Southwest 410 472 36,000  Level Montreal Center
Sun 01:18:21 PM 60.1833 -64.8833 236° Southwest 410 472 36,000  Level Montreal Center
Sun 01:18:52 PM 60.1500 -65.0167 243° Southwest 410 472 36,000  Level Gander Center
Sun 01:19:52 PM 60.0833 -65.1833 231° Southwest 410 472 36,000  Level Gander Center
Sun 01:20:52 PM 59.9833 -65.3333 217° Southwest 420 483 36,000  Level Gander Center
Sun 01:22:21 PM 59.8667 -65.5333 221° Southwest 410 472 36,000  Level Montreal Center
Sun 01:23:21 PM 59.7667 -65.6500 210° Southwest 410 472 36,000  Level Montreal Center
Sun 01:24:21 PM 59.6833 -65.8167 225° Southwest 420 483 36,000  Level Montreal Center
Sun 01:24:52 PM 59.6500 -65.9667 246° West 420 483 36,000  Level Gander Center
Sun 01:25:52 PM 59.5500 -66.1167 217° Southwest 420 483 36,000  Level Gander Center
Sun 01:27:21 PM 59.4333 -66.2667 213° Southwest 410 472 36,000  Level Montreal Center
Sun 01:28:21 PM 59.3333 -66.4167 217° Southwest 410 472 36,000  Level Montreal Center
Sun 01:29:21 PM 59.2667 -66.5333 222° Southwest 410 472 36,000  Level Montreal Center
Sun 01:30:21 PM 59.1667 -66.7000 221° Southwest 410 472 36,000  Level Montreal Center
Sun 01:31:21 PM 59.0833 -66.8500 223° Southwest 420 483 36,000  Level Montreal Center
Sun 01:32:21 PM 58.9833 -66.9667 211° Southwest 420 483 36,000  Level Montreal Center
Sun 01:33:21 PM 58.9000 -67.1333 226° Southwest 420 483 36,000  Level Montreal Center
Sun 01:34:21 PM 58.8000 -67.2833 218° Southwest 410 472 36,000  Level Montreal Center
Sun 01:35:21 PM 58.7333 -67.4333 229° Southwest 410 472 36,000  Level Montreal Center
Sun 01:36:21 PM 58.6333 -67.5500 211° Southwest 410 472 36,000  Level Montreal Center
Sun 01:37:21 PM 58.5500 -67.7000 223° Southwest 410 472 36,000  Level Montreal Center
Sun 01:38:21 PM 58.4500 -67.8500 218° Southwest 410 472 36,000  Level Montreal Center
Sun 01:38:52 PM 58.4167 -67.9667 241° Southwest 410 472 36,000  Level Gander Center
Sun 01:39:52 PM 58.3167 -68.1167 218° Southwest 410 472 36,000  Level Gander Center
Sun 01:40:52 PM 58.2333 -68.2500 220° Southwest 410 472 36,000  Level Gander Center
Sun 01:41:52 PM 58.1500 -68.3667 216° Southwest 410 472 36,000  Level Gander Center
Sun 01:43:53 PM 57.9500 -68.6500 207° Southwest 410 472 36,000  Level Gander Center
Sun 01:44:30 PM 57.9000 -68.6667 190° South 410 472 36,000  Level Montreal Center
Sun 01:45:30 PM 57.8000 -68.7833 212° Southwest 410 472 36,000  Level Montreal Center
Sun 01:46:30 PM 57.7000 -68.9333 219° Southwest 410 472 36,000  Level Montreal Center
Sun 01:47:30 PM 57.6333 -69.0500 223° Southwest 410 472 36,000  Level Montreal Center
Sun 01:48:30 PM 57.5333 -69.1833 216° Southwest 410 472 36,000  Level Montreal Center
Sun 01:50:30 PM 57.3333 -69.4500 216° Southwest 410 472 36,000  Level Montreal Center
Sun 01:51:30 PM 57.2333 -69.5500 208° Southwest 410 472 36,000  Level Montreal Center
Sun 01:53:30 PM 57.0667 -69.8000 219° Southwest 410 472 36,000  Level Montreal Center
Sun 01:54:30 PM 56.9667 -69.9000 209° Southwest 410 472 36,000  Level Montreal Center
Sun 01:55:30 PM 56.8667 -70.0500 219° Southwest 410 472 36,000  Level Montreal Center
Sun 01:56:30 PM 56.7667 -70.1500 209° Southwest 410 472 36,000  Level Montreal Center
Sun 01:57:30 PM 56.6833 -70.2833 221° Southwest 410 472 36,000  Level Montreal Center
Sun 01:58:30 PM 56.5833 -70.4000 213° Southwest 410 472 36,000  Level Montreal Center
Sun 02:00:30 PM 56.3833 -70.6333 213° Southwest 420 483 36,000  Level Montreal Center
Sun 02:01:30 PM 56.3000 -70.7500 218° Southwest 420 483 36,000  Level Montreal Center
Sun 02:02:30 PM 56.2000 -70.8833 217° Southwest 420 483 36,000  Level Montreal Center
Sun 02:04:30 PM 56.0000 -71.1167 213° Southwest 420 483 36,000  Level Montreal Center
Sun 02:05:30 PM 55.9167 -71.2167 214° Southwest 420 483 36,000  Level Montreal Center
Sun 02:06:30 PM 55.8167 -71.3500 217° Southwest 420 483 36,000  Level Montreal Center
Sun 02:07:30 PM 55.7000 -71.4833 213° Southwest 420 483 36,000  Level Montreal Center
Sun 02:08:30 PM 55.6000 -71.5833 209° Southwest 420 483 36,000  Level Montreal Center
Sun 02:10:30 PM 55.4000 -71.8167 214° Southwest 420 483 36,000  Level Montreal Center
Sun 02:11:30 PM 55.3167 -71.9333 219° Southwest 420 483 36,000  Level Montreal Center
Sun 02:12:30 PM 55.2167 -72.0333 210° Southwest 420 483 36,000  Level Montreal Center
Sun 02:13:30 PM 55.1167 -72.1667 217° Southwest 430 495 36,000  Level Montreal Center
Sun 02:15:30 PM 54.9167 -72.3833 212° Southwest 430 495 36,000  Level Montreal Center
Sun 02:16:30 PM 54.8167 -72.4833 210° Southwest 430 495 36,000  Level Montreal Center
Sun 02:17:30 PM 54.7000 -72.6167 213° Southwest 430 495 36,000  Level Montreal Center
Sun 02:18:30 PM 54.6167 -72.7000 210° Southwest 440 506 36,000  Level Montreal Center
Sun 02:19:30 PM 54.5000 -72.8333 214° Southwest 440 506 36,000  Level Montreal Center
Sun 02:20:30 PM 54.4000 -72.9500 214° Southwest 440 506 36,000  Level Montreal Center
Sun 02:21:30 PM 54.3000 -73.0833 218° Southwest 440 506 36,000  Level Montreal Center
Sun 02:22:30 PM 54.1833 -73.1667 203° Southwest 440 506 36,000  Level Montreal Center
Sun 02:24:30 PM 53.9833 -73.4167 216° Southwest 440 506 36,000  Level Montreal Center
Sun 02:25:30 PM 53.8833 -73.5000 206° Southwest 440 506 36,000  Level Montreal Center
Sun 02:26:30 PM 53.7667 -73.6333 214° Southwest 440 506 36,000  Level Montreal Center
Sun 02:27:30 PM 53.6667 -73.7167 206° Southwest 440 506 36,000  Level Montreal Center
Sun 02:28:30 PM 53.5500 -73.8333 211° Southwest 440 506 36,000  Level Montreal Center
Sun 02:29:30 PM 53.4500 -73.9333 211° Southwest 440 506 36,000  Level Montreal Center
Sun 02:30:30 PM 53.3167 -74.0167 200° South 440 506 36,000  Level Montreal Center
Sun 02:31:30 PM 53.2167 -74.1000 207° Southwest 440 506 36,000  Level Montreal Center
Sun 02:32:30 PM 53.1000 -74.2000 207° Southwest 440 506 36,000  Level Montreal Center
Sun 02:33:30 PM 52.9833 -74.2833 203° Southwest 440 506 36,000  Level Montreal Center
Sun 02:34:30 PM 52.8833 -74.3667 207° Southwest 440 506 36,000  Level Montreal Center
Sun 02:35:30 PM 52.7667 -74.4667 207° Southwest 440 506 36,000  Level Montreal Center
Sun 02:36:30 PM 52.6833 -74.5500 211° Southwest 440 506 36,000  Level Montreal Center
Sun 02:38:30 PM 52.4333 -74.7167 202° Southwest 440 506 36,000  Level Montreal Center
Sun 02:39:30 PM 52.3167 -74.8000 204° Southwest 430 495 36,000  Level Montreal Center
Sun 02:41:30 PM 52.1000 -74.9500 203° Southwest 440 506 36,000  Level Montreal Center
Sun 02:43:30 PM 51.8833 -75.1500 210° Southwest 440 506 36,000  Level Montreal Center
Sun 02:44:30 PM 51.7667 -75.2333 204° Southwest 440 506 36,000  Level Montreal Center
Sun 02:45:30 PM 51.6667 -75.2833 197° South 440 506 36,000  Level Montreal Center
Sun 02:46:30 PM 51.5500 -75.3667 204° Southwest 440 506 36,000  Level Montreal Center
Sun 02:47:30 PM 51.4500 -75.4500 207° Southwest 440 506 36,000  Level Montreal Center
Sun 02:48:30 PM 51.3333 -75.5667 212° Southwest 440 506 36,000  Level Montreal Center
Sun 02:49:30 PM 51.2167 -75.6167 195° South 440 506 36,000  Level Montreal Center
Sun 02:50:30 PM 51.1000 -75.7000 204° Southwest 440 506 36,000  Level Montreal Center
Sun 02:51:30 PM 51.0000 -75.7833 208° Southwest 430 495 36,000  Level Montreal Center
Sun 02:52:30 PM 50.9000 -75.8667 208° Southwest 440 506 36,000  Level Montreal Center
Sun 02:53:30 PM 50.7833 -75.9333 200° South 430 495 36,000  Level Montreal Center
Sun 02:54:30 PM 50.6667 -76.0167 204° Southwest 430 495 36,000  Level Montreal Center
Sun 02:56:00 PM 50.5027 -76.1321 204° Southwest  Level FlightAware Approximate
Sun 02:56:30 PM 50.4500 -76.1833 204° Southwest 440 506 36,000  Level Montreal Center
Sun 02:57:30 PM 50.3333 -76.2500 200° South 440 506 36,000  Level Montreal Center
Sun 02:58:30 PM 50.2333 -76.3333 208° Southwest 440 506 36,000  Level Montreal Center
Sun 02:59:30 PM 50.1167 -76.4167 205° Southwest 440 506 36,000  Level Montreal Center
Sun 03:00:30 PM 49.9833 -76.4833 198° South 440 506 36,000  Level Montreal Center
Sun 03:01:30 PM 49.8667 -76.5667 205° Southwest 450 518 36,000  Level Montreal Center
Sun 03:02:30 PM 49.7667 -76.6500 208° Southwest 450 518 36,000  Level Montreal Center
Sun 03:04:00 PM 49.6012 -76.7597 203° Southwest  Level FlightAware Approximate
Sun 03:04:30 PM 49.5333 -76.8000 203° Southwest 440 506 36,000  Level Montreal Center
Sun 03:05:30 PM 49.4167 -76.8667 200° South 470 541 36,000  Level Montreal Center
Sun 03:06:30 PM 49.3000 -76.9500 205° Southwest 450 518 36,000  Level Montreal Center
Sun 03:07:30 PM 49.2000 -77.0167 204° Southwest 450 518 36,000  Level Montreal Center
Sun 03:09:30 PM 48.9667 -77.2000 207° Southwest 450 518 36,000  Level Montreal Center
Sun 03:10:30 PM 48.8333 -77.2667 198° South 450 518 36,000  Level Montreal Center
Sun 03:11:30 PM 48.7167 -77.3500 205° Southwest 450 518 36,000  Level Montreal Center
Sun 03:12:30 PM 48.6000 -77.4167 201° Southwest 450 518 36,000  Level Montreal Center
Sun 03:13:30 PM 48.4833 -77.4833 201° Southwest 460 529 36,000  Level Montreal Center
Sun 03:14:30 PM 48.3667 -77.5667 205° Southwest 460 529 36,000  Level Montreal Center
Sun 03:15:30 PM 48.2500 -77.6333 201° Southwest 460 529 36,000  Level Montreal Center
Sun 03:16:30 PM 48.1333 -77.7333 210° Southwest 460 529 36,000  Level Montreal Center
Sun 03:17:30 PM 48.0167 -77.8000 201° Southwest 460 529 36,000  Level Montreal Center
Sun 03:18:30 PM 47.9000 -77.8667 201° Southwest 460 529 36,000  Level Montreal Center
Sun 03:19:30 PM 47.7667 -77.9333 199° South 460 529 36,000  Level Montreal Center
Sun 03:20:30 PM 47.6500 -78.0167 206° Southwest 450 518 36,000  Level Montreal Center
Sun 03:21:30 PM 47.5333 -78.0833 201° Southwest 450 518 36,000  Level Montreal Center
Sun 03:27:11 PM 46.9065 -78.4661 203° Southwest 454 522 36,000  Level FlightAware ADS-B (CYYZ)
Sun 03:27:40 PM 46.8293 -78.5122 203° Southwest 455 524 36,000  Level FlightAware ADS-B (CYYZ)
Sun 03:28:11 PM 46.7702 -78.5473 203° Southwest 455 524 36,000  Level FlightAware ADS-B (CYYZ)
Sun 03:28:41 PM 46.7169 -78.5789 203° Southwest 457 526 36,000  Level FlightAware ADS-B (CYYZ)
Sun 03:29:11 PM 46.6517 -78.6176 203° Southwest 458 527 36,000  Level FlightAware ADS-B (CYYZ)
Sun 03:29:41 PM 46.5964 -78.6503 203° Southwest 458 527 36,000  Level FlightAware ADS-B (CYYZ)
Sun 03:30:11 PM 46.5327 -78.6878 203° Southwest 458 527 36,000  Level FlightAware ADS-B (CYYZ)
Sun 03:30:57 PM 46.4474 -78.7379 203° Southwest 458 527 36,000  Level FlightAware ADS-B (CYYZ)
Sun 03:31:27 PM 46.3841 -78.7749 203° Southwest 458 527 36,000  Level FlightAware ADS-B (CYYZ)
Sun 03:32:12 PM 46.2956 -78.8267 202° Southwest 459 528 36,000  Level FlightAware ADS-B (CYYZ)
Sun 03:32:42 PM 46.2376 -78.8604 202° Southwest 459 528 36,000  Level FlightAware ADS-B (CYYZ)
Sun 03:33:26 PM 46.1511 -78.9106 202° Southwest 460 529 36,000  Level FlightAware ADS-B (CYYZ)
Sun 03:33:57 PM 46.0906 -78.9457 203° Southwest 460 529 36,000  Level FlightAware ADS-B (CYYZ)
Sun 03:34:28 PM 46.0312 -78.9801 202° Southwest 461 531 36,000  Level FlightAware ADS-B (CYYZ)
Sun 03:34:58 PM 45.9711 -79.0147 202° Southwest 463 533 36,000  Level FlightAware ADS-B (CYYZ)
Sun 03:35:28 PM 45.9093 -79.0502 202° Southwest 464 534 36,000  Level FlightAware ADS-B (CYYZ)
Sun 03:36:14 PM 45.8175 -79.1028 202° Southwest 465 535 36,000  Level FlightAware ADS-B (CYYZ)
Sun 03:36:44 PM 45.7582 -79.1367 202° Southwest 466 536 36,000  Level FlightAware ADS-B (CYYZ)
Sun 03:37:14 PM 45.6973 -79.1714 202° Southwest 464 534 36,000  Level FlightAware ADS-B (CYYZ)
Sun 03:37:44 PM 45.6399 -79.2041 202° Southwest 464 534 36,000  Level FlightAware ADS-B (CYYZ)
Sun 03:38:14 PM 45.5806 -79.2377 202° Southwest 464 534 36,000  Level FlightAware ADS-B (CYYZ)
Sun 03:38:59 PM 45.4902 -79.2889 202° Southwest 463 533 36,000  Level FlightAware ADS-B (CYYZ)
Sun 03:39:29 PM 45.4286 -79.3236 202° Southwest 463 533 36,000  Level FlightAware ADS-B (CYYZ)
Sun 03:39:59 PM 45.3695 -79.3569 202° Southwest 464 534 36,000  Level FlightAware ADS-B (CYYZ)
Sun 03:40:29 PM 45.3081 -79.3914 202° Southwest 465 535 36,000  Level FlightAware ADS-B (CYYZ)
Sun 03:40:59 PM 45.2505 -79.4237 202° Southwest 466 536 36,000  Level FlightAware ADS-B (CYYZ)
Sun 03:41:45 PM 45.1633 -79.4724 202° Southwest 465 535 36,000  Level FlightAware ADS-B (CYYZ)
Sun 03:42:15 PM 45.1000 -79.5077 202° Southwest 465 535 36,000  Level FlightAware ADS-B (CYYZ)
Sun 03:42:45 PM 45.0403 -79.5408 202° Southwest 466 536 36,000  Level FlightAware ADS-B (CYYZ)
Sun 03:43:15 PM 44.9765 -79.5763 202° Southwest 466 536 36,000  Level FlightAware ADS-B (CYYZ)
Sun 03:43:45 PM 44.9158 -79.6099 202° Southwest 466 536 36,000  Level FlightAware ADS-B (CYYZ)
Sun 03:44:15 PM 44.8556 -79.6432 202° Southwest 465 535 36,000  Level FlightAware ADS-B (CYYZ)
Sun 03:44:45 PM 44.7963 -79.6759 202° Southwest 465 535 36,000  Level FlightAware ADS-B (CYYZ)
Sun 03:45:12 PM 44.7472 -79.7028 201° Southwest 466 536 36,000  Level FlightAware ADS-B (EPLB / LUZ)
Sun 03:45:30 PM 44.7057 -79.7256 202° Southwest 466 536 36,000  Level FlightAware ADS-B (CYYZ)
Sun 03:45:52 PM 44.6664 -79.7472 201° Southwest 466 536 36,000  Level FlightAware ADS-B (EPLB / LUZ)
Sun 03:46:00 PM 44.6450 -79.7589 202° Southwest 466 536 36,000  Level FlightAware ADS-B (CYYZ)
Sun 03:46:31 PM 44.5868 -79.7936 206° Southwest 463 533 36,000  Level FlightAware ADS-B (CYYZ)
Sun 03:46:47 PM 44.5624 -79.8111 209° Southwest 461 531 36,000  Level FlightAware ADS-B (EPLB / LUZ)
Sun 03:47:01 PM 44.5300 -79.8378 213° Southwest 459 528 36,000  Level FlightAware ADS-B (CYYZ)
Sun 03:47:31 PM 44.4752 -79.8884 214° Southwest 457 526 36,000  Level FlightAware ADS-B (CYYZ)
Sun 03:47:41 PM 44.4580 -79.9044 214° Southwest 457 526 36,000  Level FlightAware ADS-B (EPLB / LUZ)
Sun 03:48:16 PM 44.3984 -79.9588 213° Southwest 456 525 36,000  Level FlightAware ADS-B (CYYZ)
Sun 03:48:40 PM 44.3536 -79.9992 213° Southwest 455 524 36,000  Level FlightAware ADS-B (EPLB / LUZ)
Sun 03:49:01 PM 44.3157 -80.0331 213° Southwest 456 525 36,000  Level FlightAware ADS-B (CYYZ)
Sun 03:49:19 PM 44.2859 -80.0598 213° Southwest 457 526 36,000  Level FlightAware ADS-B (EPLB / LUZ)
Sun 03:49:31 PM 44.2623 -80.0808 213° Southwest 457 526 36,000  Level FlightAware ADS-B (CYYZ)
Sun 03:50:02 PM 44.2110 -80.1267 213° Southwest 458 527 36,000  Level FlightAware ADS-B (CYYZ)
Sun 03:50:11 PM 44.1947 -80.1412 213° Southwest 459 528 36,000  Level FlightAware ADS-B (EPLB / LUZ)
Sun 03:50:32 PM 44.1551 -80.1766 213° Southwest 459 528 36,000  Level FlightAware ADS-B (CYYZ)
Sun 03:51:02 PM 44.1020 -80.2238 213° Southwest 460 529 36,000  Level FlightAware ADS-B (CYYZ)
Sun 03:51:12 PM 44.0833 -80.2404 213° Southwest 461 531 36,000  Level FlightAware ADS-B (EPLB / LUZ)
Sun 03:51:47 PM 44.0198 -80.2967 213° Southwest 459 528 36,000  Level FlightAware ADS-B (CYYZ)
Sun 03:52:08 PM 44.0106 -80.3049 213° Southwest 460 529 36,000  Level FlightAware ADS-B (CYKF)
Sun 03:52:17 PM 43.9668 -80.3437 213° Southwest 459 528 36,000  Level FlightAware ADS-B (CYYZ)
Sun 03:52:40 PM 43.9270 -80.3789 213° Southwest 460 529 36,000  Level FlightAware ADS-B (EPLB / LUZ)
Sun 03:53:03 PM 43.8848 -80.4159 213° Southwest 460 529 36,000  Level FlightAware ADS-B (CYYZ)
Sun 03:53:35 PM 43.8266 -80.4671 212° Southwest 461 531 36,000  Level FlightAware ADS-B (CYHM)
Sun 03:53:48 PM 43.8043 -80.4866 213° Southwest 460 529 36,000  Level FlightAware ADS-B (CYYZ)
Sun 03:54:16 PM 43.7579 -80.5273 212° Southwest 461 531 36,000  Level FlightAware ADS-B (EPLB / LUZ)
Sun 03:54:18 PM 43.7498 -80.5344 213° Southwest 460 529 36,000  Level FlightAware ADS-B (CYYZ)
Sun 03:54:48 PM 43.6958 -80.5816 213° Southwest 461 531 36,000  Level FlightAware ADS-B (CYYZ)
Sun 03:55:18 PM 43.6412 -80.6293 213° Southwest 460 529 36,000  Level FlightAware ADS-B (CYYZ)
Sun 03:55:33 PM 43.6478 -80.6236 212° Southwest 461 531 36,000  Level FlightAware ADS-B (CYHM)
Sun 03:55:48 PM 43.5875 -80.6761 213° Southwest 460 529 36,000  Level FlightAware ADS-B (CYYZ)
Sun 03:56:18 PM 43.5324 -80.7239 213° Southwest 458 527 36,000  Level FlightAware ADS-B (CYYZ)
Sun 03:56:48 PM 43.4785 -80.7707 213° Southwest 458 527 36,000  Level FlightAware ADS-B (CYYZ)
Sun 03:57:08 PM 43.4434 -80.8011 212° Southwest 459 528 36,000  Level FlightAware ADS-B (CYKF)
Sun 03:57:19 PM 43.4246 -80.8173 213° Southwest 459 528 36,000  Level FlightAware ADS-B (CYYZ)
Sun 03:57:49 PM 43.3710 -80.8636 213° Southwest 459 528 36,000  Level FlightAware ADS-B (CYYZ)
Sun 03:57:57 PM 43.3614 -80.8719 212° Southwest 460 529 36,000  Level FlightAware ADS-B (CYKF)
Sun 03:58:19 PM 43.3158 -80.9110 213° Southwest 458 527 36,000  Level FlightAware ADS-B (CYYZ)
Sun 03:58:28 PM 43.3001 -80.9246 212° Southwest 458 527 36,000  Level FlightAware ADS-B (EPLB / LUZ)
Sun 03:58:49 PM 43.2640 -80.9556 213° Southwest 458 527 36,000  Level FlightAware ADS-B (CYYZ)
Sun 03:59:11 PM 43.2235 -80.9904 212° Southwest 459 528 36,000  Level FlightAware ADS-B (EPLB / LUZ)
Sun 03:59:20 PM 43.2074 -81.0041 212° Southwest 458 527 36,000  Level FlightAware ADS-B (CYYZ)
Sun 03:59:45 PM 43.1619 -81.0429 212° Southwest 457 526 36,000  Level FlightAware ADS-B (EPLB / LUZ)
Sun 03:59:50 PM 43.1543 -81.0495 212° Southwest 457 526 36,000  Level FlightAware ADS-B (CYYZ)
Sun 04:00:20 PM 43.0996 -81.0962 213° Southwest 456 525 36,000  Level FlightAware ADS-B (CYYZ)
Sun 04:00:25 PM 43.0916 -81.1031 212° Southwest 457 526 36,000  Level FlightAware ADS-B (EPLB / LUZ)
Sun 04:00:58 PM 43.0338 -81.1498 207° Southwest 459 528 36,000  Level FlightAware ADS-B (EPLB / LUZ)
Sun 04:01:05 PM 43.0179 -81.1603 206° Southwest 460 529 36,000  Level FlightAware ADS-B (CYYZ)
Sun 04:01:38 PM 42.9548 -81.1984 205° Southwest 459 528 36,000  Level FlightAware ADS-B (EPLB / LUZ)
Sun 04:01:40 PM 42.9491 -81.2021 206° Southwest 459 528 36,000  Level FlightAware ADS-B (CYYZ)
Sun 04:02:19 PM 42.8752 -81.2494 205° Southwest 458 527 36,000  Level FlightAware ADS-B (EPLB / LUZ)
Sun 04:02:20 PM 42.8727 -81.2509 205° Southwest 457 526 36,000  Level FlightAware ADS-B (CYYZ)
Sun 04:02:57 PM 42.8039 -81.2937 204° Southwest 457 526 36,000  Level FlightAware ADS-B (EPLB / LUZ)
Sun 04:03:05 PM 42.7869 -81.3041 205° Southwest 456 525 36,000  Level FlightAware ADS-B (CYYZ)
Sun 04:03:39 PM 42.7204 -81.3450 204° Southwest 459 528 36,000  Level FlightAware ADS-B (EPLB / LUZ)
Sun 04:03:50 PM 42.6994 -81.3579 205° Southwest 458 527 36,000  Level FlightAware ADS-B (CYYZ)
Sun 04:04:18 PM 42.6458 -81.3906 204° Southwest 460 529 36,000  Level FlightAware ADS-B (EPLB / LUZ)
Sun 04:04:35 PM 42.6111 -81.4119 205° Southwest 460 529 36,000  Level FlightAware ADS-B (CYYZ)
Sun 04:05:01 PM 42.5614 -81.4421 204° Southwest 461 531 36,000  Level FlightAware ADS-B (EPLB / LUZ)
Sun 04:05:21 PM 42.5244 -81.4647 205° Southwest 460 529 36,000  Level FlightAware ADS-B (CYYZ)
Sun 04:05:39 PM 42.4877 -81.4870 204° Southwest 461 531 36,000  Level FlightAware ADS-B (EPLB / LUZ)
Sun 04:06:06 PM 42.4359 -81.5184 205° Southwest 460 529 36,000  Level FlightAware ADS-B (CYYZ)
Sun 04:06:51 PM 42.3536 -81.5684 205° Southwest 459 528 36,000  Level FlightAware ADS-B (CYYZ)
Sun 04:07:21 PM 42.2944 -81.6043 205° Southwest 460 529 36,000  Level FlightAware ADS-B (CYYZ)
Sun 04:07:51 PM 42.2322 -81.6419 205° Southwest 461 531 36,000  Level FlightAware ADS-B (CYYZ)
Sun 04:07:54 PM 42.2849 -81.6100 204° Southwest 462 532 36,000  Level FlightAware ADS-B (EPLB / LUZ)
Sun 04:08:36 PM 42.1497 -81.6918 205° Southwest 463 533 36,000  Level FlightAware ADS-B (CYYZ)
Sun 04:09:06 PM 42.0855 -81.7303 205° Southwest 465 535 36,000  Level FlightAware ADS-B (CYYZ)
Sun 04:09:36 PM 42.0283 -81.7647 205° Southwest 466 536 36,000  Level FlightAware ADS-B (CYYZ)
Sun 04:10:21 PM 41.9391 -81.8181 205° Southwest 468 539 36,000  Level FlightAware ADS-B (CYYZ)
Sun 04:10:51 PM 41.8791 -81.8540 204° Southwest 469 540 36,000  Level FlightAware ADS-B (CYYZ)
Sun 04:11:21 PM 41.8245 -81.8865 204° Southwest 469 540 36,000  Level FlightAware ADS-B (CYYZ)
Sun 04:11:50 PM 41.7733 -81.9169 204° Southwest 469 540 36,000  Level FlightAware ADS-B (CYYZ)
Sun 04:12:37 PM 41.6692 -81.9787 204° Southwest 466 536 36,000  Level FlightAware ADS-B (CYYZ)
Sun 04:13:22 PM 41.5847 -82.0286 204° Southwest 465 535 36,000  Level FlightAware ADS-B (CYYZ)
Sun 04:14:07 PM 41.4957 -82.0810 204° Southwest 464 534 36,000  Level FlightAware ADS-B (CYYZ)
Sun 04:14:48 PM 41.4207 -82.1251 204° Southwest 463 533 36,000  Level FlightAware ADS-B (CYYZ)
Sun 04:15:40 PM 41.3122 -82.1797 204° Southwest 465 535 36,000  Level Cleveland Center
Sun 04:16:42 PM 41.1881 -82.2231 195° South 464 534 36,000  Level Cleveland Center
Sun 04:22:42 PM 40.4659 -82.4787 195° South 439 505 36,000  Level FlightAware ADS-B (EGCN / DSA)
Sun 04:23:44 PM 40.3352 -82.5244 195° South 438 504 36,000  Level FlightAware ADS-B (EGCN / DSA)
Sun 04:24:14 PM 40.2763 -82.5449 195° South 439 505 36,000  Level FlightAware ADS-B (EGCN / DSA)
Sun 04:24:44 PM 40.2238 -82.5632 195° South 441 507 36,000  Level FlightAware ADS-B (EGCN / DSA)
Sun 04:25:17 PM 40.1583 -82.5827 189° South 446 513 36,000  Level FlightAware ADS-B (EGCN / DSA)
Sun 04:25:59 PM 40.0665 -82.5928 183° South 452 520 36,000  Level FlightAware ADS-B (EGCN / DSA)
Sun 04:26:29 PM 40.0039 -82.5977 184° South 451 519 36,000  Level FlightAware ADS-B (EGCN / DSA)
Sun 04:27:00 PM 39.9466 -82.6021 183° South 452 520 36,000  Level FlightAware ADS-B (EGCN / DSA)
Sun 04:27:44 PM 39.8454 -82.6092 183° South 450 518 36,000  Level FlightAware ADS-B (EGCN / DSA)
Sun 04:28:14 PM 39.7829 -82.6134 183° South 450 518 36,000  Level FlightAware ADS-B
Sun 04:28:53 PM 39.7004 -82.6190 183° South 451 519 36,000  Level FlightAware ADS-B
Sun 04:29:30 PM 39.6271 -82.6239 183° South 452 520 36,000  Level FlightAware ADS-B (EGCN / DSA)
Sun 04:30:09 PM 39.5438 -82.6295 183° South 452 520 36,000  Level FlightAware ADS-B
Sun 04:30:39 PM 39.4850 -82.6334 183° South 453 521 36,000  Level FlightAware ADS-B
Sun 04:31:09 PM 39.4181 -82.6379 183° South 454 522 36,000  Level FlightAware ADS-B
Sun 04:31:39 PM 39.3571 -82.6420 183° South 454 522 36,000  Level FlightAware ADS-B
Sun 04:32:14 PM 39.2839 -82.6469 183° South 455 524 36,000  Level FlightAware ADS-B (EGCN / DSA)
Sun 04:32:46 PM 39.2142 -82.6516 183° South 454 522 36,000  Level FlightAware ADS-B
Sun 04:33:16 PM 39.1502 -82.6558 183° South 454 522 36,000  Level FlightAware ADS-B
Sun 04:33:49 PM 39.0836 -82.6602 183° South 454 522 36,000  Level FlightAware ADS-B
Sun 04:34:27 PM 39.0129 -82.6648 183° South 454 522 36,000  Level FlightAware ADS-B (EGCN / DSA)
Sun 04:35:03 PM 38.9264 -82.6705 183° South 455 524 36,000  Level FlightAware ADS-B
Sun 04:35:34 PM 38.8615 -82.6748 183° South 455 524 36,000  Level FlightAware ADS-B
Sun 04:36:21 PM 38.7681 -82.6810 183° South 457 526 36,000  Level FlightAware ADS-B
Sun 04:36:51 PM 38.6992 -82.6855 183° South 458 527 36,000  Level FlightAware ADS-B
Sun 04:37:31 PM 38.6140 -82.6912 183° South 458 527 36,000  Level FlightAware ADS-B
Sun 04:37:47 PM 38.6000 -82.6922 182° South 453 521 36,000  Level Indianapolis Center
Sun 04:38:06 PM 38.5942 -82.6924 183° South 456 525 36,000  Level FlightAware ADS-B
Sun 04:38:48 PM 38.4850 -82.6996 183° South 456 525 36,000  Level FlightAware ADS-B
Sun 04:38:49 PM 38.4733 -82.7008 183° South 454 522 36,000  Level Indianapolis Center
Sun 04:39:51 PM 38.3261 -82.7100 183° South 454 522 36,000  Level Indianapolis Center
Sun 04:40:53 PM 38.1989 -82.7178 183° South 454 522 36,000  Level Indianapolis Center
Sun 04:41:55 PM 38.0736 -82.7253 183° South 454 522 36,000  Level Indianapolis Center
Sun 04:43:59 PM 37.8225 -82.7422 182° South 453 521 36,000  Level Indianapolis Center
Sun 04:45:00 PM 37.6975 -82.7589 186° South 453 521 36,000  Level Indianapolis Center
Sun 04:47:04 PM 37.4525 -82.9000 205° Southwest 448 516 36,000  Level Indianapolis Center
Sun 04:48:06 PM 37.3447 -82.9717 208° Southwest 443 510 36,000  Level Indianapolis Center
Sun 04:51:12 PM 37.0056 -83.1950 208° Southwest 439 505 36,000  Level Indianapolis Center
Sun 04:52:14 PM 36.8972 -83.2628 207° Southwest 439 505 36,000  Level Indianapolis Center
Sun 04:54:18 PM 36.6814 -83.4011 207° Southwest 438 504 36,000  Level Indianapolis Center
Sun 04:55:20 PM 36.5575 -83.4808 207° Southwest 434 499 36,000  Level Indianapolis Center
Sun 04:57:48 PM 36.3058 -83.6444 206° Southwest 426 490 36,000  Level Atlanta Center
Sun 04:58:26 PM 36.2375 -83.6850 206° Southwest 431 496 36,000  Level Indianapolis Center
Sun 04:59:48 PM 36.0831 -83.7844 207° Southwest 431 496 36,000  Level Atlanta Center
Sun 05:00:48 PM 35.9767 -83.8514 207° Southwest 431 496 36,000  Level Atlanta Center
Sun 05:01:48 PM 35.8622 -83.9056 201° Southwest 431 496 36,000  Level Atlanta Center
Sun 05:02:48 PM 35.7433 -83.9339 191° South 436 502 36,000  Level Atlanta Center
Sun 05:03:48 PM 35.6222 -83.9647 192° South 441 507 36,000  Level Atlanta Center
Sun 05:08:33 PM 35.0433 -84.1029 191° South 440 506 36,000  Level FlightAware ADS-B (KMDQ)
Sun 05:09:48 PM 34.8942 -84.1400 191° South 446 513 36,000  Level Atlanta Center
Sun 05:10:48 PM 34.7731 -84.1678 191° South 446 513 36,000  Level Atlanta Center
Sun 05:11:48 PM 34.6625 -84.1953 192° South 446 513 36,000  Level Atlanta Center
Sun 05:13:48 PM 34.4222 -84.2528 191° South 451 519 36,000  Level Atlanta Center
Sun 05:14:48 PM 34.2969 -84.2803 190° South 451 519 36,000  Level Atlanta Center
Sun 05:15:48 PM 34.1800 -84.3075 191° South 446 513 36,000  Level Atlanta Center
Sun 05:16:48 PM 34.0547 -84.3372 191° South 453 521 36,000  Level Atlanta Center
Sun 05:17:48 PM 33.9400 -84.3644 191° South 443 510 36,000  Level Atlanta Center
Sun 05:19:48 PM 33.6892 -84.4233 190° South 452 520 36,000  Level Atlanta Center
Sun 05:20:48 PM 33.5556 -84.4353 184° South 445 512 36,000 300 Level Atlanta Center
Sun 05:22:48 PM 33.3053 -84.4314 178° South 445 512 36,900 333 Climbing Atlanta Center
Sun 05:23:48 PM 33.1800 -84.4286 179° South 440 506 37,000 50 Climbing Atlanta Center
Sun 05:24:48 PM 33.0569 -84.4256 179° South 440 506 37,000  Level Atlanta Center
Sun 05:25:48 PM 32.9317 -84.4225 179° South 446 513 37,000  Level Atlanta Center
Sun 05:26:48 PM 32.8083 -84.4194 179° South 446 513 37,000  Level Atlanta Center
Sun 05:28:48 PM 32.5600 -84.4133 179° South 446 513 37,000  Level Atlanta Center
Sun 05:31:48 PM 32.1739 -84.4069 180° South 462 532 37,000  Level Atlanta Center
Sun 05:37:00 PM 31.5755 -84.3833 180° South  Level FlightAware Approximate
Sun 05:38:17 PM 31.3210 -84.3887 179° South 485 558 37,000  Level FlightAware ADS-B (KONZ)
Sun 05:39:35 PM 31.1447 -84.3853 179° South 487 560 37,000  Level FlightAware ADS-B (KONZ)
Sun 05:40:07 PM 31.0720 -84.3838 179° South 487 560 37,000  Level FlightAware ADS-B (KONZ)
Sun 05:40:48 PM 30.9804 -84.3821 179° South 485 558 37,000  Level FlightAware ADS-B (KONZ)
Sun 05:41:25 PM 30.8981 -84.3805 179° South 484 557 37,000  Level FlightAware ADS-B (KONZ)
Sun 05:42:07 PM 30.8029 -84.3786 179° South 483 556 37,000  Level FlightAware ADS-B (KONZ)
Sun 05:42:38 PM 30.7453 -84.3775 179° South 482 555 37,000  Level FlightAware ADS-B (KONZ)
Sun 05:43:18 PM 30.6492 -84.3707 172° South 483 556 37,000  Level FlightAware ADS-B (KONZ)
Sun 05:43:48 PM 30.5817 -84.3559 167° South 483 556 37,000  Level FlightAware ADS-B (KONZ)
Sun 05:44:27 PM 30.4966 -84.3252 159° South 483 556 37,000  Level FlightAware ADS-B (KONZ)
Sun 05:45:04 PM 30.4220 -84.2853 153° Southeast 480 552 37,000  Level FlightAware ADS-B (KONZ)
Sun 05:45:36 PM 30.3689 -84.2505 151° Southeast 478 550 37,000  Level FlightAware ADS-B (KONZ)
Sun 05:46:07 PM 30.2994 -84.2054 151° Southeast 479 551 37,000  Level FlightAware ADS-B (KONZ)
Sun 05:46:37 PM 30.2409 -84.1673 150° Southeast 478 550 37,000  Level FlightAware ADS-B (KONZ)
Sun 05:47:08 PM 30.1858 -84.1314 151° Southeast 478 550 37,000  Level FlightAware ADS-B (KONZ)
Sun 05:47:38 PM 30.1575 -84.1130 151° Southeast 476 548 37,000  Level FlightAware ADS-B (KONZ)
Sun 05:48:15 PM 30.0585 -84.0485 151° Southeast 477 549 37,000  Level FlightAware ADS-B (KONZ)
Sun 05:48:48 PM 30.0047 -84.0136 151° Southeast 478 550 37,000  Level FlightAware ADS-B (KONZ)
Sun 05:49:44 PM 29.8825 -83.9344 151° Southeast 474 545 37,000  Level FlightAware ADS-B (KONZ)
Sun 05:50:47 PM 29.7817 -83.8689 151° Southeast 476 548 37,000  Level Miami Center
Sun 05:51:49 PM 29.6683 -83.7947 150° Southeast 473 544 37,000  Level Miami Center
Sun 05:52:51 PM 29.5319 -83.7078 151° Southeast 472 543 37,000  Level Miami Center
Sun 05:53:53 PM 29.4169 -83.6331 150° Southeast 473 544 37,000  Level Miami Center
Sun 05:54:55 PM 29.3014 -83.5597 151° Southeast 476 548 37,000  Level Miami Center
Sun 05:55:57 PM 29.1856 -83.4858 151° Southeast 477 549 37,000  Level Miami Center
Sun 05:56:59 PM 29.0703 -83.4119 151° Southeast 478 550 37,000  Level Miami Center
Sun 06:02:55 PM 28.3531 -82.9615 151° Southeast 483 556 37,000  Level FlightAware ADS-B (KEYW)
Sun 06:03:16 PM 28.3472 -82.9579 151° Southeast 484 557 37,000  Level FlightAware ADS-B
Sun 06:04:16 PM 28.2204 -82.8787 151° Southeast 488 562 37,000  Level FlightAware ADS-B
Sun 06:05:20 PM 28.0662 -82.7827 151° Southeast 484 557 37,000  Level FlightAware ADS-B (KEYW)
Sun 06:05:52 PM 28.0353 -82.7635 151° Southeast 482 555 37,000  Level FlightAware ADS-B
Sun 06:07:16 PM 27.8595 -82.6535 149° Southeast 480 552 37,000  Level FlightAware ADS-B
Sun 06:07:36 PM 27.8029 -82.6150 148° Southeast 481 554 37,000  Level FlightAware ADS-B (KEYW)
Sun 06:07:57 PM 27.7670 -82.5906 149° Southeast 483 556 37,000  Level FlightAware ADS-B
Sun 06:08:36 PM 27.6933 -82.5411 149° Southeast 486 559 37,000  Level FlightAware ADS-B
Sun 06:09:07 PM 27.6298 -82.5007 154° Southeast 486 559 37,000  Level FlightAware ADS-B
Sun 06:09:41 PM 27.5527 -82.4832 181° South 483 556 37,000  Level FlightAware ADS-B (KEYW)
Sun 06:10:27 PM 27.4508 -82.4847 181° South 481 554 37,000  Level FlightAware ADS-B (KEYW)
Sun 06:11:12 PM 27.3484 -82.4855 181° South 478 550 37,000  Level FlightAware ADS-B (KEYW)
Sun 06:11:57 PM 27.2487 -82.4866 181° South 478 550 37,000  Level FlightAware ADS-B (KEYW)
Sun 06:12:39 PM 27.2075 -82.4870 181° South 479 551 37,000  Level FlightAware ADS-B (KEYW)
Sun 06:13:27 PM 27.0461 -82.4888 181° South 483 556 37,000  Level FlightAware ADS-B (KEYW)
Sun 06:14:12 PM 26.9481 -82.4898 181° South 478 550 37,000 -200 Level FlightAware ADS-B (KEYW)
Sun 06:14:57 PM 26.8456 -82.4908 181° South 483 556 36,700 -667 Descending FlightAware ADS-B (KEYW)
Sun 06:15:42 PM 26.7466 -82.4920 181° South 475 547 36,000 -952 Descending FlightAware ADS-B (KEYW)
Sun 06:16:00 PM 26.7150 -82.4923 181° South 474 545 35,700 -1,043 Descending FlightAware ADS-B
Sun 06:16:28 PM 26.6462 -82.4930 181° South 475 547 35,200 -1,031 Descending FlightAware ADS-B (KEYW)
Sun 06:17:04 PM 26.5727 -82.4938 181° South 478 550 34,600 -933 Descending FlightAware ADS-B
Sun 06:17:13 PM 26.5472 -82.4941 181° South 479 551 34,500 -900 Descending FlightAware ADS-B (KEYW)
Sun 06:17:44 PM 26.4843 -82.4947 181° South 479 551 34,000 -1,067 Descending FlightAware ADS-B
Sun 06:17:58 PM 26.4463 -82.4951 181° South 480 552 33,700 -1,017 Descending FlightAware ADS-B (KEYW)
Sun 06:18:43 PM 26.3458 -82.4960 181° South 482 555 33,000 -933 Descending FlightAware ADS-B (KEYW)
Sun 06:19:28 PM 26.2443 -82.4970 181° South 483 556 32,300 -1,000 Descending FlightAware ADS-B (KEYW)
Sun 06:20:13 PM 26.1442 -82.4980 181° South 490 564 31,500 -1,023 Descending FlightAware ADS-B (KEYW)
Sun 06:20:56 PM 26.0512 -82.4989 181° South 490 564 30,800 -913 Descending FlightAware ADS-B (KEYW)
Sun 06:21:45 PM 25.9433 -82.5000 181° South 481 554 30,100 -516 Descending FlightAware ADS-B
Sun 06:22:29 PM 25.8377 -82.5009 181° South 486 559 30,000 -71 Descending FlightAware ADS-B (KEYW)
Sun 06:23:09 PM 25.7504 -82.5018 181° South 485 558 30,000  Level FlightAware ADS-B (KEYW)
Sun 06:23:59 PM 25.6355 -82.5031 181° South 485 558 30,000  Level FlightAware ADS-B (KEYW)
Sun 06:24:44 PM 25.5366 -82.5040 181° South 486 559 30,000  Level FlightAware ADS-B (KEYW)
Sun 06:25:29 PM 25.4322 -82.5050 181° South 487 560 30,000  Level FlightAware ADS-B (KEYW)
Sun 06:26:14 PM 25.3303 -82.5060 181° South 489 563 30,000  Level FlightAware ADS-B (KEYW)
Sun 06:27:00 PM 25.2266 -82.5070 181° South 489 563 30,000  Level FlightAware ADS-B (KEYW)
Sun 06:27:45 PM 25.1251 -82.5079 181° South 490 564 30,000  Level FlightAware ADS-B (KEYW)
Sun 06:28:30 PM 25.0218 -82.5090 181° South 491 565 30,000 -67 Level FlightAware ADS-B (KEYW)
Sun 06:29:15 PM 24.9192 -82.5100 181° South 493 567 29,900 -733 Descending FlightAware ADS-B (KEYW)
Sun 06:30:00 PM 24.8166 -82.5108 181° South 492 566 28,900 -1,400 Descending FlightAware ADS-B (KEYW)
Sun 06:30:45 PM 24.7136 -82.5119 181° South 481 554 27,800 -1,467 Descending FlightAware ADS-B (KEYW)
Sun 06:31:30 PM 24.6139 -82.5130 181° South 476 548 26,700 -1,451 Descending FlightAware ADS-B (KEYW)
Sun 06:32:16 PM 24.5156 -82.5138 181° South 467 537 25,600 -1,451 Descending FlightAware ADS-B (KEYW)
Sun 06:33:01 PM 24.4176 -82.5148 181° South 464 534 24,500 -1,467 Descending FlightAware ADS-B (KEYW)
Sun 06:33:46 PM 24.3213 -82.5157 181° South 457 526 23,400 -1,267 Descending FlightAware ADS-B (KEYW)
Sun 06:34:31 PM 24.2301 -82.5166 181° South 449 517 22,600 -933 Descending FlightAware ADS-B (KEYW)
Sun 06:35:16 PM 24.1334 -82.5174 181° South 447 514 22,000 -400 Descending FlightAware ADS-B (KEYW)
Sun 06:36:01 PM 24.0402 -82.5184 181° South 441 507 22,000 -733 Level FlightAware ADS-B (KEYW)
Sun 06:36:46 PM 23.9515 -82.5227 186° South 421 484 20,900 -2,176 Descending FlightAware ADS-B (KEYW)
Sun 06:37:32 PM 23.8639 -82.5323 186° South 413 475 18,700 -3,000 Descending FlightAware ADS-B (KEYW)
Sun 06:38:16 PM 23.7816 -82.5407 186° South 399 459 16,400 -2,867 Descending FlightAware ADS-B (KEYW)
Sun 06:39:02 PM 23.6986 -82.5490 186° South 377 434 14,400 -2,769 Descending FlightAware ADS-B (KEYW)
Sun 06:39:47 PM 23.6210 -82.5568 186° South 373 429 12,200 -2,200 Descending FlightAware ADS-B (KEYW)
Sun 06:40:32 PM 23.5454 -82.5643 186° South 362 417 11,100 -1,333 Descending FlightAware ADS-B (KEYW)
Sun 06:41:17 PM 23.4704 -82.5718 186° South 345 397 10,200 -1,267 Descending FlightAware ADS-B (KEYW)
Sun 06:42:02 PM 23.4054 -82.5782 186° South 327 376 9,200 -1,300 Descending FlightAware ADS-B (KEYW)
Sun 06:42:17 PM 23.3784 -82.5809 186° South 324 373 8,900 -1,304 Descending FlightAware ADS-B (KEYW)
Sun 06:42:48 PM 23.3335 -82.5853 186° South 319 367 8,200 -1,333 Descending FlightAware ADS-B (KEYW)
Sun 06:43:02 PM 23.3119 -82.5875 186° South 315 362 7,900 -1,467 Descending FlightAware ADS-B (KEYW)
Sun 06:43:33 PM 23.2682 -82.5919 186° South 308 354 7,100 -1,435 Descending FlightAware ADS-B (KEYW)
Sun 06:43:48 PM 23.2473 -82.5940 186° South 299 344 6,800 -800 Descending FlightAware ADS-B (KEYW)
Sun 06:44:18 PM 23.2069 -82.5979 186° South 285 328 6,500 -545 Descending FlightAware ADS-B (KEYW)
Sun 06:44:32 PM 23.1891 -82.5997 186° South 285 328 6,400 -800 Descending FlightAware ADS-B (KEYW)
Sun 06:45:03 PM 23.1528 -82.6036 187° South 253 291 5,900 -1,067 Descending FlightAware ADS-B (KEYW)
Sun 06:45:17 PM 23.1361 -82.6056 187° South 253 291 5,600 -1,125 Descending FlightAware ADS-B (KEYW)
Sun 06:45:35 PM 23.1150 -82.6081 187° South 253 291 5,300 -1,000 Descending FlightAware ADS-B (KEYW)
Sun 06:48:00 PM 22.9891 -82.4091 124° Southeast  Level Estimated
Sun 06:49:00 PM 22.9891 -82.4091 180° South  Level Estimated
Sun 06:50:00 PM 22.9891 -82.4091 180° South  Level Estimated
Sun 06:51:00 PM 22.9891 -82.4091 180° South  Level Estimated
Sun 06:52:00 PM 22.9891 -82.4091 180° South  Level Estimated
Sun 06:53:00 PM 22.9891 -82.4091 180° South  Level Estimated
Sun 06:54:00 PM 22.9891 -82.4091 180° South  Level Estimated
Sun 06:55:00 PM 22.9891 -82.4091 180° South  Level Estimated
Sun 06:56:00 PM 22.9891 -82.4091 180° South  Level Estimated
Sun 06:57:00 PM 22.9891 -82.4091 180° South  Level Estimated
Sun 06:58:00 PM 22.9891 -82.4091 180° South  Level Estimated
Sun 06:59:00 PM 22.9891 -82.4091 180° South  Level Estimated
Sun 07:00:00 PM 22.9891 -82.4091 180° South  Level Estimated
Sun 07:01:00 PM 22.9891 -82.4091 180° South  Level Estimated
Sun 07:02:00 PM 22.9891 -82.4091 180° South  Level Estimated
Sun 07:03:00 PM 22.9891 -82.4091 180° South  Level Estimated
Sun 07:04:00 PM 22.9891 -82.4091 180° South  Level Estimated
Sun 07:05:00 PM 22.9891 -82.4091 180° South  Level Estimated
Sun 07:06:00 PM 22.9891 -82.4091 180° South  Level Estimated
Sun 07:07:00 PM 22.9891 -82.4091 180° South  Level Estimated
Sun 07:08:00 PM 22.9891 -82.4091 180° South  Level Estimated

Login

Don't have an account? Register now (free) for customized features, flight alerts, and more!